Terminal Aerodrome Forecast
Issued by NWS Lake Charles, LA

Home | Current Version | Previous Version | Text Only | Print | Product List | Glossary On
Versions: 1 2 3 4 5 6 7 8 9 10 11 12 13 14 15 16 17 18 19 20 21 22 23 24 25
000
FTUS44 KLCH 022300
TAFAEX
TAF
KAEX 022326Z 0300/0324 VRB06KT P6SM VCTS SCT035CB OVC200
     FM030200 VRB03KT P6SM BKN200
     FM030900 00000KT 5SM BR FEW012
      TEMPO 0310/0312 2SM BR
     FM031300 14004KT P6SM SCT025
     FM031800 15007KT P6SM VCSH BKN035 PROB30 0320/0324 3SM SHRA
      BKN025=

USA.gov is the U.S. government's official web portal to all federal, state and local government web resources and services.